Faro Airport


Codes: CZFA/ZFA
Name: Faro Airport
City: Faro
Country: Canada
Elevation: 2351 ft.
Wikipedia:

Photos at Faro Airport


   Photos courtesy of SpottingLog. You can add your own sightings and photos by signing up for a free trial today.



No photos found.

Weather at Faro Airport


Time (UTC)DescriptionTempratureWindCloud coverageVisibilityPressureHumidity
23-May-2024 21:00Broken Clouds13°C7 mph, SE75%10000m1005hPa38%
24-May-2024 00:00Light Rain12°C4 mph, E83%10000m1005hPa49%
24-May-2024 03:00Light Rain11°C4 mph, SE92%10000m1005hPa63%
24-May-2024 06:00Light Rain9°C2 mph, SE100%10000m1006hPa85%
24-May-2024 09:00Light Rain8°C2 mph, SE100%10000m1006hPa89%
24-May-2024 12:00Overcast Clouds8°C0 mph, SW100%10000m1007hPa90%
24-May-2024 15:00Overcast Clouds9°C2 mph, W100%10000m1006hPa80%
24-May-2024 18:00Overcast Clouds12°C4 mph, W100%10000m1005hPa60%
24-May-2024 21:00Overcast Clouds13°C4 mph, W100%10000m1004hPa52%
25-May-2024 00:00Overcast Clouds14°C4 mph, W100%10000m1002hPa48%
25-May-2024 03:00Overcast Clouds12°C2 mph, SW100%10000m1001hPa53%
25-May-2024 06:00Overcast Clouds10°C2 mph, SE100%10000m1001hPa66%
25-May-2024 09:00Overcast Clouds8°C2 mph, SE91%10000m1002hPa81%
25-May-2024 12:00Light Rain7°C2 mph, E90%10000m1002hPa88%
25-May-2024 15:00Light Rain9°C0 mph, SW100%10000m1002hPa77%
25-May-2024 18:00Light Rain10°C2 mph, SE99%10000m1002hPa71%
25-May-2024 21:00Light Rain13°C7 mph, SE88%10000m1000hPa53%
26-May-2024 00:00Light Rain14°C7 mph, SE94%10000m999hPa48%
26-May-2024 03:00Light Rain13°C7 mph, E100%10000m1000hPa59%
26-May-2024 06:00Light Rain10°C4 mph, E100%10000m1001hPa79%
26-May-2024 09:00Broken Clouds8°C4 mph, E80%10000m1003hPa88%
26-May-2024 12:00Broken Clouds7°C4 mph, E61%10000m1004hPa91%
26-May-2024 15:00Broken Clouds10°C4 mph, E76%10000m1003hPa79%
26-May-2024 18:00Overcast Clouds13°C7 mph, SE88%10000m1002hPa58%
26-May-2024 21:00Overcast Clouds16°C7 mph, SE100%10000m1001hPa46%
27-May-2024 00:00Light Rain15°C9 mph, SE100%10000m1002hPa55%
27-May-2024 03:00Light Rain14°C2 mph, SE100%10000m1002hPa60%
27-May-2024 06:00Light Rain10°C2 mph, S100%10000m1005hPa78%
27-May-2024 09:00Light Rain9°C2 mph, SE100%10000m1007hPa84%
27-May-2024 12:00Overcast Clouds8°C2 mph, E100%10000m1007hPa86%
27-May-2024 15:00Overcast Clouds10°C2 mph, E100%10000m1006hPa74%
27-May-2024 18:00Light Rain13°C4 mph, E97%10000m1004hPa62%
27-May-2024 21:00Light Rain13°C7 mph, SE100%10000m1003hPa61%
28-May-2024 00:00Moderate Rain10°C9 mph, SE100%5290m1004hPa84%
28-May-2024 03:00Light Rain10°C7 mph, SE98%10000m1006hPa66%
28-May-2024 06:00Light Rain7°C4 mph, SE94%10000m1009hPa76%
28-May-2024 09:00Broken Clouds5°C4 mph, E52%10000m1011hPa85%
28-May-2024 12:00Scattered Clouds4°C4 mph, E29%10000m1012hPa87%
28-May-2024 15:00Clear Sky7°C4 mph, SE2%10000m1011hPa70%
28-May-2024 18:00Clear Sky11°C2 mph, SE4%10000m1010hPa44%